createdAt,value
2023-03-03T00:00:33.229Z,59.90
2023-03-03T00:06:41.234Z,46.63
2023-03-03T00:20:39.219Z,42.45
2023-03-03T00:25:35.876Z,43.58
2023-03-03T00:28:25.070Z,34.33
2023-03-03T00:31:00.028Z,35.78
2023-03-03T00:33:32.884Z,35.50
2023-03-03T01:06:38.329Z,22.58
2023-03-03T01:09:04.946Z,21.35
2023-03-03T01:11:31.570Z,29.67
2023-03-03T01:13:58.224Z,27.27
2023-03-03T01:24:06.926Z,26.42
2023-03-03T01:26:33.945Z,27.80
2023-03-03T01:29:00.609Z,22.35
2023-03-03T01:31:27.320Z,25.30
2023-03-03T01:33:53.971Z,28.17
2023-03-03T01:44:02.911Z,28.42
2023-03-03T01:46:35.679Z,30.40
2023-03-03T01:49:11.108Z,33.45
2023-03-03T02:22:54.016Z,34.45
2023-03-03T02:25:41.237Z,33.53
2023-03-03T02:28:08.421Z,36.60
2023-03-03T03:05:05.676Z,24.23
2023-03-03T03:07:32.403Z,33.28
2023-03-03T03:09:59.281Z,27.42
2023-03-03T03:12:25.941Z,35.88
2023-03-03T03:14:52.624Z,32.60
2023-03-03T03:17:19.216Z,33.53
2023-03-03T05:48:10.419Z,52.05
2023-03-03T05:50:38.114Z,41.35
2023-03-03T05:53:04.840Z,40.72
2023-03-03T05:55:31.690Z,49.22
2023-03-03T05:57:58.347Z,44.63
2023-03-03T06:00:25.043Z,49.97
2023-03-03T06:06:42.529Z,44.90
2023-03-03T06:09:09.119Z,46.50
2023-03-03T06:11:37.445Z,42.90
2023-03-03T06:14:04.079Z,46.58
2023-03-03T06:16:30.838Z,50.25
2023-03-03T06:18:57.608Z,45.95
2023-03-03T06:48:22.300Z,49.08
2023-03-03T06:50:49.190Z,48.53
2023-03-03T06:53:18.261Z,56.30
2023-03-03T06:55:45.701Z,47.83
2023-03-03T07:59:21.058Z,46.00
2023-03-03T08:01:50.798Z,48.85
2023-03-03T08:04:21.742Z,50.45
2023-03-03T08:06:49.814Z,55.00
2023-03-03T08:09:19.217Z,50.72
2023-03-03T08:19:30.218Z,36.97
2023-03-03T08:22:09.308Z,61.75
2023-03-03T08:24:38.387Z,51.05
2023-03-03T08:27:05.175Z,54.60
2023-03-03T08:29:31.851Z,55.50
2023-03-03T08:31:58.861Z,51.35
2023-03-03T08:34:25.638Z,47.10
2023-03-03T08:36:52.265Z,46.88
2023-03-03T09:06:16.892Z,46.65
2023-03-03T09:08:43.539Z,34.67
2023-03-03T09:11:13.058Z,25.70
2023-03-03T09:13:39.814Z,31.30
2023-03-03T09:16:16.213Z,36.63
2023-03-03T09:26:31.141Z,34.75
2023-03-03T10:10:35.930Z,37.88
2023-03-03T10:13:21.548Z,43.30
2023-03-03T10:16:06.290Z,33.08
2023-03-03T10:18:42.190Z,36.22
2023-03-03T11:28:05.153Z,17.05
2023-03-03T11:30:35.601Z,17.95
2023-03-03T11:33:22.756Z,20.65
2023-03-03T11:36:05.003Z,14.98
2023-03-03T11:38:48.342Z,16.98
2023-03-03T13:07:43.227Z,5.65
2023-03-03T13:10:37.990Z,4.55
2023-03-03T13:13:17.677Z,4.93
2023-03-03T13:16:05.567Z,3.22
2023-03-03T13:22:44.154Z,4.05
2023-03-03T13:25:57.829Z,4.78
2023-03-03T13:59:39.857Z,1.75
2023-03-03T14:02:28.697Z,5.13
2023-03-03T14:05:06.109Z,4.18
2023-03-03T14:07:39.060Z,5.50
2023-03-03T14:10:25.925Z,7.07
2023-03-03T14:12:59.240Z,6.68
2023-03-03T14:15:33.629Z,6.30
2023-03-03T14:33:43.953Z,2.67
2023-03-03T14:36:13.393Z,2.63
2023-03-03T14:38:43.594Z,3.92
2023-03-03T14:41:20.128Z,7.97
2023-03-03T16:33:47.403Z,8.20
2023-03-03T16:36:33.749Z,4.70
2023-03-03T16:39:20.285Z,10.73
2023-03-03T16:42:32.672Z,6.72
2023-03-03T16:45:09.286Z,7.15
2023-03-03T16:47:45.532Z,6.45
2023-03-03T16:50:41.108Z,4.75
2023-03-03T16:57:34.873Z,4.38
2023-03-03T17:00:27.012Z,4.25
2023-03-03T17:03:12.188Z,4.57
2023-03-03T17:09:31.486Z,5.82
2023-03-03T17:12:34.071Z,4.70
2023-03-03T17:15:39.969Z,9.88
2023-03-03T17:20:57.692Z,6.10
2023-03-03T17:35:37.545Z,7.10
2023-03-03T17:38:22.937Z,6.57
2023-03-03T17:41:11.102Z,6.10
2023-03-03T17:44:07.597Z,13.43
2023-03-03T17:46:42.081Z,8.27
2023-03-03T17:49:53.361Z,7.53
2023-03-03T18:04:45.973Z,7.82
2023-03-03T20:04:16.807Z,19.98
2023-03-03T20:07:17.770Z,28.65
2023-03-03T20:10:16.300Z,20.25
2023-03-03T20:12:56.549Z,16.60
2023-03-03T20:15:36.944Z,18.77
2023-03-03T20:29:14.522Z,21.60
2023-03-03T22:53:01.253Z,27.17
2023-03-03T22:55:29.185Z,13.48
2023-03-03T22:57:55.784Z,12.88
2023-03-03T23:11:56.020Z,17.65
2023-03-03T23:14:22.767Z,16.33
2023-03-03T23:16:49.568Z,19.50
2023-03-03T23:19:16.264Z,11.00
2023-03-03T23:21:43.018Z,13.60
2023-03-03T23:24:11.055Z,23.50
2023-03-03T23:26:38.206Z,26.25
2023-03-03T23:29:05.583Z,9.75
2023-03-03T23:31:32.353Z,21.15
